sensor_id;sensor_type;location;lat;lon;timestamp;pressure;altitude;pressure_sealevel;temperature;humidity
37610;BME280;23457;51.966;8.230;2023-07-22T00:00:30;100696.09;;;14.48;100.00
37610;BME280;23457;51.966;8.230;2023-07-22T00:02:57;100690.00;;;14.50;100.00
37610;BME280;23457;51.966;8.230;2023-07-22T00:05:24;100685.63;;;14.46;100.00
37610;BME280;23457;51.966;8.230;2023-07-22T00:07:52;100695.22;;;14.44;100.00
37610;BME280;23457;51.966;8.230;2023-07-22T00:10:19;100704.78;;;14.33;100.00
37610;BME280;23457;51.966;8.230;2023-07-22T00:12:46;100705.66;;;14.38;100.00
37610;BME280;23457;51.966;8.230;2023-07-22T00:15:13;100704.84;;;14.42;100.00
37610;BME280;23457;51.966;8.230;2023-07-22T00:17:40;100692.63;;;14.50;100.00
37610;BME280;23457;51.966;8.230;2023-07-22T00:20:08;100689.16;;;14.41;100.00
37610;BME280;23457;51.966;8.230;2023-07-22T00:22:38;100681.31;;;14.42;100.00
37610;BME280;23457;51.966;8.230;2023-07-22T00:25:11;100690.84;;;14.37;100.00
37610;BME280;23457;51.966;8.230;2023-07-22T00:27:38;100701.31;;;14.31;100.00
37610;BME280;23457;51.966;8.230;2023-07-22T00:30:06;100697.81;;;14.33;100.00
37610;BME280;23457;51.966;8.230;2023-07-22T00:32:33;100690.84;;;14.37;100.00
37610;BME280;23457;51.966;8.230;2023-07-22T00:35:06;100696.97;;;14.28;100.00
37610;BME280;23457;51.966;8.230;2023-07-22T00:37:33;100697.81;;;14.27;100.00
37610;BME280;23457;51.966;8.230;2023-07-22T00:40:01;100691.72;;;14.27;100.00
37610;BME280;23457;51.966;8.230;2023-07-22T00:42:28;100692.59;;;14.24;100.00
37610;BME280;23457;51.966;8.230;2023-07-22T00:44:55;100683.88;;;14.15;100.00
37610;BME280;23457;51.966;8.230;2023-07-22T00:47:22;100684.75;;;14.05;100.00
37610;BME280;23457;51.966;8.230;2023-07-22T00:49:49;100678.63;;;14.19;100.00
37610;BME280;23457;51.966;8.230;2023-07-22T00:52:16;100686.47;;;14.12;100.00
37610;BME280;23457;51.966;8.230;2023-07-22T00:54:43;100676.03;;;14.15;100.00
37610;BME280;23457;51.966;8.230;2023-07-22T00:57:12;100676.91;;;14.29;100.00
37610;BME280;23457;51.966;8.230;2023-07-22T00:59:39;100672.53;;;14.25;100.00
37610;BME280;23457;51.966;8.230;2023-07-22T01:02:07;100670.81;;;14.18;100.00
37610;BME280;23457;51.966;8.230;2023-07-22T01:04:34;100665.56;;;14.15;100.00
37610;BME280;23457;51.966;8.230;2023-07-22T01:07:06;100672.53;;;14.22;100.00
37610;BME280;23457;51.966;8.230;2023-07-22T01:09:37;100662.09;;;14.13;100.00
37610;BME280;23457;51.966;8.230;2023-07-22T01:12:05;100664.72;;;14.17;100.00
37610;BME280;23457;51.966;8.230;2023-07-22T01:14:39;100656.88;;;14.28;100.00
37610;BME280;23457;51.966;8.230;2023-07-22T01:17:10;100658.59;;;14.20;100.00
37610;BME280;23457;51.966;8.230;2023-07-22T01:19:38;100650.78;;;14.30;100.00
37610;BME280;23457;51.966;8.230;2023-07-22T01:22:06;100651.63;;;14.28;100.00
37610;BME280;23457;51.966;8.230;2023-07-22T01:24:38;100657.72;;;14.19;100.00
37610;BME280;23457;51.966;8.230;2023-07-22T01:27:08;100654.25;;;14.13;100.00
37610;BME280;23457;51.966;8.230;2023-07-22T01:29:36;100659.47;;;14.11;100.00
37610;BME280;23457;51.966;8.230;2023-07-22T01:32:03;100658.59;;;14.02;100.00
37610;BME280;23457;51.966;8.230;2023-07-22T01:34:30;100662.94;;;14.09;100.00
37610;BME280;23457;51.966;8.230;2023-07-22T01:36:58;100662.09;;;14.22;100.00
37610;BME280;23457;51.966;8.230;2023-07-22T01:39:26;100657.75;;;14.30;100.00
37610;BME280;23457;51.966;8.230;2023-07-22T01:41:54;100661.22;;;14.38;100.00
37610;BME280;23457;51.966;8.230;2023-07-22T01:44:20;100660.34;;;14.36;100.00
37610;BME280;23457;51.966;8.230;2023-07-22T01:46:47;100654.25;;;14.37;100.00
37610;BME280;23457;51.966;8.230;2023-07-22T01:49:13;100656.84;;;14.22;100.00
37610;BME280;23457;51.966;8.230;2023-07-22T01:51:40;100654.25;;;14.26;100.00
37610;BME280;23457;51.966;8.230;2023-07-22T01:54:07;100653.38;;;14.17;100.00
37610;BME280;23457;51.966;8.230;2023-07-22T01:56:36;100663.81;;;14.33;100.00
37610;BME280;23457;51.966;8.230;2023-07-22T01:59:02;100661.22;;;14.35;100.00
37610;BME280;23457;51.966;8.230;2023-07-22T02:01:29;100664.75;;;14.40;100.00
37610;BME280;23457;51.966;8.230;2023-07-22T02:03:56;100664.72;;;14.49;100.00
37610;BME280;23457;51.966;8.230;2023-07-22T02:06:23;100658.63;;;14.47;100.00
37610;BME280;23457;51.966;8.230;2023-07-22T02:08:50;100665.56;;;14.36;100.00
37610;BME280;23457;51.966;8.230;2023-07-22T02:11:17;100678.66;;;14.27;100.00
37610;BME280;23457;51.966;8.230;2023-07-22T02:13:44;100667.34;;;14.40;100.00
37610;BME280;23457;51.966;8.230;2023-07-22T02:16:10;100668.19;;;14.39;100.00
37610;BME280;23457;51.966;8.230;2023-07-22T02:18:40;100663.84;;;14.47;100.00
37610;BME280;23457;51.966;8.230;2023-07-22T02:21:07;100669.97;;;14.49;100.00
37610;BME280;23457;51.966;8.230;2023-07-22T02:23:33;100666.47;;;14.49;100.00
37610;BME280;23457;51.966;8.230;2023-07-22T02:26:01;100654.25;;;14.49;100.00
37610;BME280;23457;51.966;8.230;2023-07-22T02:28:27;100658.63;;;14.50;100.00
37610;BME280;23457;51.966;8.230;2023-07-22T02:30:54;100663.00;;;14.56;100.00
37610;BME280;23457;51.966;8.230;2023-07-22T02:33:21;100665.59;;;14.48;100.00
37610;BME280;23457;51.966;8.230;2023-07-22T02:35:49;100663.00;;;14.51;100.00
37610;BME280;23457;51.966;8.230;2023-07-22T02:38:15;100660.38;;;14.54;100.00
37610;BME280;23457;51.966;8.230;2023-07-22T02:40:43;100660.34;;;14.57;100.00
37610;BME280;23457;51.966;8.230;2023-07-22T02:43:10;100658.59;;;14.59;100.00
37610;BME280;23457;51.966;8.230;2023-07-22T02:45:37;100656.88;;;14.61;100.00
37610;BME280;23457;51.966;8.230;2023-07-22T02:48:04;100661.22;;;14.58;100.00
37610;BME280;23457;51.966;8.230;2023-07-22T02:50:31;100655.13;;;14.57;100.00
37610;BME280;23457;51.966;8.230;2023-07-22T02:52:58;100655.13;;;14.59;100.00
37610;BME280;23457;51.966;8.230;2023-07-22T02:55:24;100655.13;;;14.60;100.00
37610;BME280;23457;51.966;8.230;2023-07-22T02:57:51;100656.03;;;14.56;100.00
37610;BME280;23457;51.966;8.230;2023-07-22T03:00:19;100660.38;;;14.48;100.00
37610;BME280;23457;51.966;8.230;2023-07-22T03:02:54;100648.16;;;14.44;100.00
37610;BME280;23457;51.966;8.230;2023-07-22T03:05:28;100653.38;;;14.46;100.00
37610;BME280;23457;51.966;8.230;2023-07-22T03:07:55;100656.88;;;14.49;100.00
37610;BME280;23457;51.966;8.230;2023-07-22T03:10:23;100657.75;;;14.53;100.00
37610;BME280;23457;51.966;8.230;2023-07-22T03:12:50;100656.88;;;14.52;100.00
37610;BME280;23457;51.966;8.230;2023-07-22T03:15:24;100661.22;;;14.58;100.00
37610;BME280;23457;51.966;8.230;2023-07-22T03:17:53;100667.31;;;14.61;100.00
37610;BME280;23457;51.966;8.230;2023-07-22T03:20:20;100663.84;;;14.62;100.00
37610;BME280;23457;51.966;8.230;2023-07-22T03:22:48;100658.63;;;14.62;100.00
37610;BME280;23457;51.966;8.230;2023-07-22T03:25:16;100662.97;;;14.68;100.00
37610;BME280;23457;51.966;8.230;2023-07-22T03:27:46;100673.41;;;14.71;100.00
37610;BME280;23457;51.966;8.230;2023-07-22T03:30:15;100668.22;;;14.68;100.00
37610;BME280;23457;51.966;8.230;2023-07-22T03:32:43;100673.41;;;14.80;100.00
37610;BME280;23457;51.966;8.230;2023-07-22T03:35:13;100676.91;;;14.75;100.00
37610;BME280;23457;51.966;8.230;2023-07-22T03:37:40;100678.63;;;14.69;100.00
37610;BME280;23457;51.966;8.230;2023-07-22T03:40:08;100675.16;;;14.74;100.00
37610;BME280;23457;51.966;8.230;2023-07-22T03:42:50;100681.28;;;14.66;100.00
37610;BME280;23457;51.966;8.230;2023-07-22T03:45:18;100676.94;;;14.68;100.00
37610;BME280;23457;51.966;8.230;2023-07-22T03:47:46;100678.66;;;14.77;100.00
37610;BME280;23457;51.966;8.230;2023-07-22T03:50:13;100669.06;;;14.79;100.00
37610;BME280;23457;51.966;8.230;2023-07-22T03:52:40;100679.53;;;14.78;100.00
37610;BME280;23457;51.966;8.230;2023-07-22T03:55:07;100676.91;;;14.81;100.00
37610;BME280;23457;51.966;8.230;2023-07-22T03:57:34;100679.53;;;14.78;100.00
37610;BME280;23457;51.966;8.230;2023-07-22T04:00:03;100683.88;;;14.74;100.00
37610;BME280;23457;51.966;8.230;2023-07-22T04:02:38;100681.25;;;14.79;100.00
37610;BME280;23457;51.966;8.230;2023-07-22T04:05:05;100688.25;;;14.80;100.00
37610;BME280;23457;51.966;8.230;2023-07-22T04:07:32;100684.72;;;14.88;100.00
37610;BME280;23457;51.966;8.230;2023-07-22T04:09:58;100689.09;;;14.92;100.00
37610;BME280;23457;51.966;8.230;2023-07-22T04:12:25;100687.34;;;14.87;100.00
37610;BME280;23457;51.966;8.230;2023-07-22T04:14:52;100683.84;;;14.91;100.00
37610;BME280;23457;51.966;8.230;2023-07-22T04:17:19;100688.22;;;14.89;100.00
37610;BME280;23457;51.966;8.230;2023-07-22T04:19:46;100686.50;;;14.71;100.00
37610;BME280;23457;51.966;8.230;2023-07-22T04:22:13;100689.09;;;14.69;100.00
37610;BME280;23457;51.966;8.230;2023-07-22T04:24:39;100682.16;;;14.62;100.00
37610;BME280;23457;51.966;8.230;2023-07-22T04:27:06;100684.78;;;14.68;100.00
37610;BME280;23457;51.966;8.230;2023-07-22T04:29:33;100691.72;;;14.73;100.00
37610;BME280;23457;51.966;8.230;2023-07-22T04:32:05;100694.31;;;14.88;100.00
37610;BME280;23457;51.966;8.230;2023-07-22T04:34:32;100694.31;;;14.88;100.00
37610;BME280;23457;51.966;8.230;2023-07-22T04:36:59;100695.19;;;14.93;100.00
37610;BME280;23457;51.966;8.230;2023-07-22T04:39:26;100698.66;;;15.01;100.00
37610;BME280;23457;51.966;8.230;2023-07-22T04:41:52;100700.41;;;15.07;100.00
37610;BME280;23457;51.966;8.230;2023-07-22T04:44:19;100698.66;;;15.01;100.00
37610;BME280;23457;51.966;8.230;2023-07-22T04:46:46;100701.28;;;15.04;100.00
37610;BME280;23457;51.966;8.230;2023-07-22T04:49:13;100703.00;;;15.10;100.00
37610;BME280;23457;51.966;8.230;2023-07-22T04:51:47;100698.66;;;15.04;100.00
37610;BME280;23457;51.966;8.230;2023-07-22T04:54:14;100695.16;;;14.99;100.00
37610;BME280;23457;51.966;8.230;2023-07-22T04:56:42;100705.59;;;15.10;100.00
37610;BME280;23457;51.966;8.230;2023-07-22T04:59:09;100705.59;;;15.08;100.00
37610;BME280;23457;51.966;8.230;2023-07-22T05:01:36;100703.91;;;15.04;100.00
37610;BME280;23457;51.966;8.230;2023-07-22T05:04:03;100704.72;;;15.14;100.00
37610;BME280;23457;51.966;8.230;2023-07-22T05:06:31;100709.09;;;15.10;100.00
37610;BME280;23457;51.966;8.230;2023-07-22T05:08:58;100710.84;;;15.11;100.00
37610;BME280;23457;51.966;8.230;2023-07-22T05:11:25;100706.47;;;15.16;100.00
37610;BME280;23457;51.966;8.230;2023-07-22T05:13:51;100698.63;;;15.19;100.00
37610;BME280;23457;51.966;8.230;2023-07-22T05:16:18;100711.69;;;15.25;100.00
37610;BME280;23457;51.966;8.230;2023-07-22T05:18:45;100703.81;;;15.31;100.00
37610;BME280;23457;51.966;8.230;2023-07-22T05:21:12;100705.53;;;15.35;100.00
37610;BME280;23457;51.966;8.230;2023-07-22T05:23:38;100708.19;;;15.26;100.00
37610;BME280;23457;51.966;8.230;2023-07-22T05:26:05;100710.81;;;15.26;100.00
37610;BME280;23457;51.966;8.230;2023-07-22T05:28:32;100710.81;;;15.31;100.00
37610;BME280;23457;51.966;8.230;2023-07-22T05:30:58;100709.00;;;15.36;100.00
37610;BME280;23457;51.966;8.230;2023-07-22T05:33:25;100711.69;;;15.28;100.00
37610;BME280;23457;51.966;8.230;2023-07-22T05:35:52;100712.53;;;15.30;100.00
37610;BME280;23457;51.966;8.230;2023-07-22T05:38:19;100716.91;;;15.30;100.00
37610;BME280;23457;51.966;8.230;2023-07-22T05:40:45;100717.75;;;15.36;100.00
37610;BME280;23457;51.966;8.230;2023-07-22T05:43:12;100721.22;;;15.38;100.00
37610;BME280;23457;51.966;8.230;2023-07-22T05:45:39;100720.34;;;15.43;100.00
37610;BME280;23457;51.966;8.230;2023-07-22T05:48:05;100716.88;;;15.42;100.00
37610;BME280;23457;51.966;8.230;2023-07-22T05:50:32;100723.81;;;15.48;100.00
37610;BME280;23457;51.966;8.230;2023-07-22T05:52:59;100719.47;;;15.56;100.00
37610;BME280;23457;51.966;8.230;2023-07-22T05:55:25;100717.75;;;15.43;100.00
37610;BME280;23457;51.966;8.230;2023-07-22T05:57:53;100714.25;;;15.44;100.00
37610;BME280;23457;51.966;8.230;2023-07-22T06:00:20;100720.34;;;15.39;100.00
37610;BME280;23457;51.966;8.230;2023-07-22T06:02:48;100715.09;;;15.55;100.00
37610;BME280;23457;51.966;8.230;2023-07-22T06:05:15;100715.97;;;15.57;100.00
37610;BME280;23457;51.966;8.230;2023-07-22T06:07:42;100710.59;;;15.81;100.00
37610;BME280;23457;51.966;8.230;2023-07-22T06:10:12;100713.09;;;16.02;100.00
37610;BME280;23457;51.966;8.230;2023-07-22T06:12:38;100713.91;;;16.09;100.00
37610;BME280;23457;51.966;8.230;2023-07-22T06:15:06;100715.56;;;16.25;100.00
37610;BME280;23457;51.966;8.230;2023-07-22T06:17:33;100726.13;;;16.16;100.00
37610;BME280;23457;51.966;8.230;2023-07-22T06:20:01;100726.06;;;16.24;100.00
37610;BME280;23457;51.966;8.230;2023-07-22T06:22:27;100726.91;;;16.29;100.00
37610;BME280;23457;51.966;8.230;2023-07-22T06:24:54;100723.41;;;16.27;100.00
37610;BME280;23457;51.966;8.230;2023-07-22T06:27:21;100712.03;;;16.32;100.00
37610;BME280;23457;51.966;8.230;2023-07-22T06:29:48;100717.22;;;16.35;100.00
37610;BME280;23457;51.966;8.230;2023-07-22T06:32:15;100702.31;;;16.43;100.00
37610;BME280;23457;51.966;8.230;2023-07-22T06:34:41;100713.78;;;16.32;100.00
37610;BME280;23457;51.966;8.230;2023-07-22T06:37:08;100708.47;;;16.35;100.00
37610;BME280;23457;51.966;8.230;2023-07-22T06:39:35;100705.03;;;16.30;100.00
37610;BME280;23457;51.966;8.230;2023-07-22T06:42:01;100705.81;;;16.41;100.00
37610;BME280;23457;51.966;8.230;2023-07-22T06:44:29;100710.03;;;16.63;100.00
37610;BME280;23457;51.966;8.230;2023-07-22T06:46:56;100710.88;;;16.70;100.00
37610;BME280;23457;51.966;8.230;2023-07-22T06:49:23;100715.25;;;16.66;100.00
37610;BME280;23457;51.966;8.230;2023-07-22T06:51:50;100715.19;;;16.74;100.00
37610;BME280;23457;51.966;8.230;2023-07-22T06:54:16;100714.25;;;16.82;100.00
37610;BME280;23457;51.966;8.230;2023-07-22T06:56:43;100718.50;;;16.93;100.00
37610;BME280;23457;51.966;8.230;2023-07-22T06:59:09;100718.63;;;16.83;100.00
37610;BME280;23457;51.966;8.230;2023-07-22T07:01:36;100713.31;;;16.88;100.00
37610;BME280;23457;51.966;8.230;2023-07-22T07:04:03;100720.28;;;16.91;100.00
37610;BME280;23457;51.966;8.230;2023-07-22T07:06:30;100723.75;;;16.96;100.00
37610;BME280;23457;51.966;8.230;2023-07-22T07:08:59;100719.25;;;17.05;100.00
37610;BME280;23457;51.966;8.230;2023-07-22T07:11:28;100724.66;;;16.90;100.00
37610;BME280;23457;51.966;8.230;2023-07-22T07:13:55;100726.38;;;16.96;100.00
37610;BME280;23457;51.966;8.230;2023-07-22T07:16:25;100734.19;;;16.99;99.75
37610;BME280;23457;51.966;8.230;2023-07-22T07:18:53;100721.16;;;16.88;99.85
37610;BME280;23457;51.966;8.230;2023-07-22T07:21:21;100715.91;;;16.91;100.00
37610;BME280;23457;51.966;8.230;2023-07-22T07:23:48;100717.69;;;16.88;100.00
37610;BME280;23457;51.966;8.230;2023-07-22T07:26:15;100721.00;;;17.06;100.00
37610;BME280;23457;51.966;8.230;2023-07-22T07:28:42;100716.66;;;17.02;98.64
37610;BME280;23457;51.966;8.230;2023-07-22T07:31:08;100723.53;;;17.12;100.00
37610;BME280;23457;51.966;8.230;2023-07-22T07:33:36;100718.84;;;17.42;99.75
37610;BME280;23457;51.966;8.230;2023-07-22T07:36:03;100728.28;;;17.60;99.93
37610;BME280;23457;51.966;8.230;2023-07-22T07:38:31;100723.84;;;17.62;98.35
37610;BME280;23457;51.966;8.230;2023-07-22T07:41:00;100722.72;;;17.84;95.84
37610;BME280;23457;51.966;8.230;2023-07-22T07:43:27;100716.84;;;17.64;96.35
37610;BME280;23457;51.966;8.230;2023-07-22T07:48:49;100714.00;;;17.82;98.56
37610;BME280;23457;51.966;8.230;2023-07-22T07:51:16;100706.63;;;18.05;96.82
37610;BME280;23457;51.966;8.230;2023-07-22T07:53:44;100707.00;;;18.38;94.96
37610;BME280;23457;51.966;8.230;2023-07-22T07:56:11;100709.78;;;18.29;96.78
37610;BME280;23457;51.966;8.230;2023-07-22T07:58:39;100704.44;;;18.35;99.21
37610;BME280;23457;51.966;8.230;2023-07-22T08:01:06;100705.53;;;18.21;97.74
37610;BME280;23457;51.966;8.230;2023-07-22T08:03:34;100724.63;;;18.34;96.47
37610;BME280;23457;51.966;8.230;2023-07-22T08:06:02;100722.03;;;18.30;95.05
37610;BME280;23457;51.966;8.230;2023-07-22T08:08:29;100719.59;;;18.17;96.73
37610;BME280;23457;51.966;8.230;2023-07-22T08:11:08;100729.09;;;18.27;96.34
37610;BME280;23457;51.966;8.230;2023-07-22T08:13:36;100717.38;;;18.48;95.51
37610;BME280;23457;51.966;8.230;2023-07-22T08:16:08;100716.59;;;18.42;95.88
37610;BME280;23457;51.966;8.230;2023-07-22T08:18:35;100716.50;;;18.48;94.64
37610;BME280;23457;51.966;8.230;2023-07-22T08:21:04;100722.66;;;18.48;96.10
37610;BME280;23457;51.966;8.230;2023-07-22T08:23:33;100728.06;;;18.38;96.78
37610;BME280;23457;51.966;8.230;2023-07-22T08:26:00;100729.00;;;18.34;96.23
37610;BME280;23457;51.966;8.230;2023-07-22T08:28:27;100718.56;;;18.29;96.61
37610;BME280;23457;51.966;8.230;2023-07-22T08:30:55;100730.28;;;18.65;95.95
37610;BME280;23457;51.966;8.230;2023-07-22T08:33:22;100725.63;;;18.79;92.63
37610;BME280;23457;51.966;8.230;2023-07-22T08:36:07;100729.78;;;18.94;93.71
37610;BME280;23457;51.966;8.230;2023-07-22T08:38:34;100733.25;;;18.96;93.50
37610;BME280;23457;51.966;8.230;2023-07-22T08:41:00;100734.84;;;19.05;92.08
37610;BME280;23457;51.966;8.230;2023-07-22T08:43:28;100722.75;;;18.93;91.60
37610;BME280;23457;51.966;8.230;2023-07-22T08:45:59;100720.31;;;19.30;90.11
37610;BME280;23457;51.966;8.230;2023-07-22T08:48:27;100719.31;;;19.37;91.78
37610;BME280;23457;51.966;8.230;2023-07-22T08:51:00;100720.72;;;19.09;89.20
37610;BME280;23457;51.966;8.230;2023-07-22T08:53:29;100727.00;;;19.02;90.75
37610;BME280;23457;51.966;8.230;2023-07-22T08:55:56;100714.97;;;19.33;89.41
37610;BME280;23457;51.966;8.230;2023-07-22T08:58:23;100724.94;;;19.17;89.53
37610;BME280;23457;51.966;8.230;2023-07-22T09:00:51;100729.28;;;19.20;92.05
37610;BME280;23457;51.966;8.230;2023-07-22T09:03:18;100721.72;;;19.48;89.05
37610;BME280;23457;51.966;8.230;2023-07-22T09:05:46;100719.34;;;19.34;87.70
37610;BME280;23457;51.966;8.230;2023-07-22T09:08:13;100723.00;;;19.27;87.75
37610;BME280;23457;51.966;8.230;2023-07-22T09:10:40;100721.94;;;19.37;87.90
37610;BME280;23457;51.966;8.230;2023-07-22T09:13:08;100730.75;;;19.36;87.36
37610;BME280;23457;51.966;8.230;2023-07-22T09:15:35;100735.75;;;19.48;85.86
37610;BME280;23457;51.966;8.230;2023-07-22T09:18:04;100733.56;;;19.72;85.97
37610;BME280;23457;51.966;8.230;2023-07-22T09:20:31;100731.44;;;19.44;85.32
37610;BME280;23457;51.966;8.230;2023-07-22T09:22:59;100725.75;;;19.65;84.10
37610;BME280;23457;51.966;8.230;2023-07-22T09:25:40;100722.25;;;20.05;85.59
37610;BME280;23457;51.966;8.230;2023-07-22T09:28:08;100723.75;;;20.15;83.14
37610;BME280;23457;51.966;8.230;2023-07-22T09:30:36;100714.53;;;19.97;80.77
37610;BME280;23457;51.966;8.230;2023-07-22T09:33:07;100711.97;;;19.93;78.33
37610;BME280;23457;51.966;8.230;2023-07-22T09:35:47;100713.78;;;19.91;79.20
37610;BME280;23457;51.966;8.230;2023-07-22T09:38:14;100708.31;;;20.00;76.61
37610;BME280;23457;51.966;8.230;2023-07-22T09:40:43;100710.22;;;20.30;78.18
37610;BME280;23457;51.966;8.230;2023-07-22T09:43:11;100706.44;;;20.42;76.15
37610;BME280;23457;51.966;8.230;2023-07-22T09:45:40;100716.06;;;20.45;76.43
37610;BME280;23457;51.966;8.230;2023-07-22T09:48:09;100708.59;;;20.62;72.50
37610;BME280;23457;51.966;8.230;2023-07-22T09:50:36;100706.09;;;20.56;75.27
37610;BME280;23457;51.966;8.230;2023-07-22T09:53:04;100705.19;;;20.91;72.68
37610;BME280;23457;51.966;8.230;2023-07-22T09:55:31;100705.78;;;21.02;71.33
37610;BME280;23457;51.966;8.230;2023-07-22T09:58:05;100700.94;;;21.19;73.56
37610;BME280;23457;51.966;8.230;2023-07-22T10:00:35;100696.66;;;21.14;73.92
37610;BME280;23457;51.966;8.230;2023-07-22T10:03:03;100694.69;;;21.22;70.92
37610;BME280;23457;51.966;8.230;2023-07-22T10:05:34;100693.16;;;21.13;73.61
37610;BME280;23457;51.966;8.230;2023-07-22T10:08:02;100692.84;;;20.91;70.54
37610;BME280;23457;51.966;8.230;2023-07-22T10:10:34;100692.25;;;21.14;69.54
37610;BME280;23457;51.966;8.230;2023-07-22T10:13:02;100686.84;;;21.17;68.19
37610;BME280;23457;51.966;8.230;2023-07-22T10:15:31;100681.56;;;21.17;70.16
37610;BME280;23457;51.966;8.230;2023-07-22T10:18:01;100681.06;;;21.37;66.75
37610;BME280;23457;51.966;8.230;2023-07-22T10:20:28;100683.78;;;21.34;64.15
37610;BME280;23457;51.966;8.230;2023-07-22T10:22:56;100686.78;;;21.22;66.76
37610;BME280;23457;51.966;8.230;2023-07-22T10:25:23;100674.78;;;21.08;67.60
37610;BME280;23457;51.966;8.230;2023-07-22T10:27:52;100669.44;;;21.10;69.38
37610;BME280;23457;51.966;8.230;2023-07-22T10:30:18;100673.03;;;21.40;67.72
37610;BME280;23457;51.966;8.230;2023-07-22T10:32:50;100671.34;;;21.05;66.55
37610;BME280;23457;51.966;8.230;2023-07-22T10:37:52;100667.81;;;21.04;65.07
37610;BME280;23457;51.966;8.230;2023-07-22T10:45:28;100671.81;;;21.21;60.96
37610;BME280;23457;51.966;8.230;2023-07-22T10:50:47;100668.50;;;21.13;61.42
37610;BME280;23457;51.966;8.230;2023-07-22T10:58:30;100665.28;;;21.01;62.98
37610;BME280;23457;51.966;8.230;2023-07-22T11:14:22;100644.59;;;21.48;61.95
37610;BME280;23457;51.966;8.230;2023-07-22T11:16:49;100653.22;;;21.53;61.06
37610;BME280;23457;51.966;8.230;2023-07-22T11:19:17;100648.88;;;21.52;62.14
37610;BME280;23457;51.966;8.230;2023-07-22T11:21:45;100649.22;;;21.69;59.84
37610;BME280;23457;51.966;8.230;2023-07-22T11:24:13;100645.53;;;21.75;60.12
37610;BME280;23457;51.966;8.230;2023-07-22T11:26:40;100637.25;;;21.86;60.35
37610;BME280;23457;51.966;8.230;2023-07-22T11:29:09;100637.06;;;21.64;58.71
37610;BME280;23457;51.966;8.230;2023-07-22T11:31:40;100628.06;;;21.97;59.78
37610;BME280;23457;51.966;8.230;2023-07-22T11:34:16;100632.25;;;22.31;56.54
37610;BME280;23457;51.966;8.230;2023-07-22T11:36:43;100623.56;;;22.27;57.05
37610;BME280;23457;51.966;8.230;2023-07-22T11:39:12;100629.00;;;21.95;56.49
37610;BME280;23457;51.966;8.230;2023-07-22T11:41:40;100629.06;;;22.21;56.66
37610;BME280;23457;51.966;8.230;2023-07-22T11:44:12;100619.75;;;22.61;58.79
37610;BME280;23457;51.966;8.230;2023-07-22T11:47:05;100620.44;;;22.92;56.28
37610;BME280;23457;51.966;8.230;2023-07-22T11:49:37;100619.34;;;22.98;57.11
37610;BME280;23457;51.966;8.230;2023-07-22T11:52:09;100626.28;;;22.77;54.16
37610;BME280;23457;51.966;8.230;2023-07-22T11:57:23;100616.63;;;22.49;54.16
37610;BME280;23457;51.966;8.230;2023-07-22T11:59:55;100622.03;;;22.46;53.20
37610;BME280;23457;51.966;8.230;2023-07-22T12:02:25;100620.50;;;22.39;53.75
37610;BME280;23457;51.966;8.230;2023-07-22T12:07:26;100615.91;;;22.44;54.50
37610;BME280;23457;51.966;8.230;2023-07-22T12:09:55;100620.50;;;22.39;54.35
37610;BME280;23457;51.966;8.230;2023-07-22T12:12:38;100619.38;;;22.46;56.60
37610;BME280;23457;51.966;8.230;2023-07-22T12:15:17;100623.84;;;22.44;55.15
37610;BME280;23457;51.966;8.230;2023-07-22T12:20:13;100631.84;;;22.68;53.92
37610;BME280;23457;51.966;8.230;2023-07-22T12:22:41;100621.97;;;22.73;52.99
37610;BME280;23457;51.966;8.230;2023-07-22T12:25:08;100615.66;;;23.02;52.65
37610;BME280;23457;51.966;8.230;2023-07-22T12:27:37;100616.41;;;23.05;53.87
37610;BME280;23457;51.966;8.230;2023-07-22T12:30:05;100610.06;;;22.86;51.31
37610;BME280;23457;51.966;8.230;2023-07-22T12:32:33;100606.31;;;22.67;51.71
37610;BME280;23457;51.966;8.230;2023-07-22T12:35:00;100606.13;;;22.46;54.07
37610;BME280;23457;51.966;8.230;2023-07-22T12:37:27;100602.97;;;22.62;53.46
37610;BME280;23457;51.966;8.230;2023-07-22T12:39:56;100595.91;;;22.87;54.81
37610;BME280;23457;51.966;8.230;2023-07-22T12:42:22;100594.47;;;23.02;55.24
37610;BME280;23457;51.966;8.230;2023-07-22T12:44:49;100592.34;;;23.11;52.64
37610;BME280;23457;51.966;8.230;2023-07-22T12:47:16;100593.03;;;23.16;51.80
37610;BME280;23457;51.966;8.230;2023-07-22T12:49:42;100591.91;;;23.22;52.61
37610;BME280;23457;51.966;8.230;2023-07-22T12:52:09;100591.88;;;23.23;52.40
37610;BME280;23457;51.966;8.230;2023-07-22T12:54:36;100591.94;;;23.44;51.45
37610;BME280;23457;51.966;8.230;2023-07-22T12:57:03;100591.22;;;23.85;52.06
37610;BME280;23457;51.966;8.230;2023-07-22T12:59:30;100588.50;;;23.87;49.21
37610;BME280;23457;51.966;8.230;2023-07-22T13:01:57;100589.53;;;23.61;50.07
37610;BME280;23457;51.966;8.230;2023-07-22T13:04:24;100580.22;;;23.73;50.30
37610;BME280;23457;51.966;8.230;2023-07-22T13:06:51;100585.47;;;23.96;50.67
37610;BME280;23457;51.966;8.230;2023-07-22T13:09:19;100575.84;;;23.72;48.32
37610;BME280;23457;51.966;8.230;2023-07-22T13:11:46;100574.59;;;23.58;48.20
37610;BME280;23457;51.966;8.230;2023-07-22T13:14:13;100581.41;;;23.87;49.94
37610;BME280;23457;51.966;8.230;2023-07-22T13:16:40;100569.50;;;24.40;49.33
37610;BME280;23457;51.966;8.230;2023-07-22T13:19:07;100565.56;;;24.28;48.02
37610;BME280;23457;51.966;8.230;2023-07-22T13:21:34;100568.84;;;24.13;49.25
37610;BME280;23457;51.966;8.230;2023-07-22T13:24:00;100565.66;;;24.05;47.79
37610;BME280;23457;51.966;8.230;2023-07-22T13:26:27;100569.19;;;24.05;47.87
37610;BME280;23457;51.966;8.230;2023-07-22T13:28:54;100558.53;;;24.27;48.21